sensor_id;sensor_type;location;lat;lon;timestamp;temperature;humidity
43227;DHT22;28839;52.404;9.808;2023-03-30T00:00:07;9.10;99.90
43227;DHT22;28839;52.404;9.808;2023-03-30T00:07:11;9.10;99.90
43227;DHT22;28839;52.404;9.808;2023-03-30T00:14:04;9.00;99.90
43227;DHT22;28839;52.404;9.808;2023-03-30T00:20:59;9.00;99.90
43227;DHT22;28839;52.404;9.808;2023-03-30T00:27:55;8.90;99.90
43227;DHT22;28839;52.404;9.808;2023-03-30T00:34:49;8.90;99.90
43227;DHT22;28839;52.404;9.808;2023-03-30T00:41:43;8.90;99.90
43227;DHT22;28839;52.404;9.808;2023-03-30T00:48:38;8.80;99.90
43227;DHT22;28839;52.404;9.808;2023-03-30T00:55:35;8.80;99.90
43227;DHT22;28839;52.404;9.808;2023-03-30T01:02:30;8.70;99.90
43227;DHT22;28839;52.404;9.808;2023-03-30T01:09:28;8.70;99.90
43227;DHT22;28839;52.404;9.808;2023-03-30T01:16:27;8.60;99.90
43227;DHT22;28839;52.404;9.808;2023-03-30T01:23:57;8.40;99.90
43227;DHT22;28839;52.404;9.808;2023-03-30T01:31:19;8.60;99.90
43227;DHT22;28839;52.404;9.808;2023-03-30T01:38:37;8.90;99.90
43227;DHT22;28839;52.404;9.808;2023-03-30T01:45:41;9.10;99.90
43227;DHT22;28839;52.404;9.808;2023-03-30T01:52:38;9.10;99.90
43227;DHT22;28839;52.404;9.808;2023-03-30T01:59:38;9.20;99.90
43227;DHT22;28839;52.404;9.808;2023-03-30T02:06:37;9.30;99.90
43227;DHT22;28839;52.404;9.808;2023-03-30T02:13:36;9.40;99.90
43227;DHT22;28839;52.404;9.808;2023-03-30T02:20:32;9.50;99.90
43227;DHT22;28839;52.404;9.808;2023-03-30T02:27:27;9.60;99.90
43227;DHT22;28839;52.404;9.808;2023-03-30T02:34:36;9.80;99.90
43227;DHT22;28839;52.404;9.808;2023-03-30T02:41:55;9.90;99.90
43227;DHT22;28839;52.404;9.808;2023-03-30T02:49:00;10.00;99.90
43227;DHT22;28839;52.404;9.808;2023-03-30T02:56:01;10.10;99.90
43227;DHT22;28839;52.404;9.808;2023-03-30T03:03:00;10.20;99.90
43227;DHT22;28839;52.404;9.808;2023-03-30T03:09:58;10.30;99.90
43227;DHT22;28839;52.404;9.808;2023-03-30T03:16:52;10.30;99.90
43227;DHT22;28839;52.404;9.808;2023-03-30T03:23:47;10.40;99.90
43227;DHT22;28839;52.404;9.808;2023-03-30T03:30:42;10.40;99.90
43227;DHT22;28839;52.404;9.808;2023-03-30T03:37:35;10.60;99.90
43227;DHT22;28839;52.404;9.808;2023-03-30T03:44:29;10.60;99.90
43227;DHT22;28839;52.404;9.808;2023-03-30T03:51:25;10.70;99.90
43227;DHT22;28839;52.404;9.808;2023-03-30T03:58:21;10.70;99.90
43227;DHT22;28839;52.404;9.808;2023-03-30T04:05:15;10.80;99.90
43227;DHT22;28839;52.404;9.808;2023-03-30T04:12:10;10.90;99.90
43227;DHT22;28839;52.404;9.808;2023-03-30T04:19:04;10.80;99.90
43227;DHT22;28839;52.404;9.808;2023-03-30T04:26:00;10.80;99.90
43227;DHT22;28839;52.404;9.808;2023-03-30T04:32:55;11.00;99.90
43227;DHT22;28839;52.404;9.808;2023-03-30T04:39:56;10.90;99.90
43227;DHT22;28839;52.404;9.808;2023-03-30T04:46:50;11.10;99.90
43227;DHT22;28839;52.404;9.808;2023-03-30T04:53:45;11.20;99.90
43227;DHT22;28839;52.404;9.808;2023-03-30T05:00:39;11.30;99.90
43227;DHT22;28839;52.404;9.808;2023-03-30T05:07:33;11.30;99.90
43227;DHT22;28839;52.404;9.808;2023-03-30T05:14:29;11.30;99.90
43227;DHT22;28839;52.404;9.808;2023-03-30T05:21:23;11.10;99.90
43227;DHT22;28839;52.404;9.808;2023-03-30T05:28:17;11.10;99.90
43227;DHT22;28839;52.404;9.808;2023-03-30T05:35:12;11.30;99.90
43227;DHT22;28839;52.404;9.808;2023-03-30T05:42:06;11.30;99.90
43227;DHT22;28839;52.404;9.808;2023-03-30T05:49:00;11.50;99.90
43227;DHT22;28839;52.404;9.808;2023-03-30T05:55:55;11.60;99.90
43227;DHT22;28839;52.404;9.808;2023-03-30T06:02:49;11.60;99.90
43227;DHT22;28839;52.404;9.808;2023-03-30T06:09:43;11.70;99.90
43227;DHT22;28839;52.404;9.808;2023-03-30T06:16:38;12.30;99.90
43227;DHT22;28839;52.404;9.808;2023-03-30T06:23:32;12.70;99.90
43227;DHT22;28839;52.404;9.808;2023-03-30T06:30:26;12.90;99.90
43227;DHT22;28839;52.404;9.808;2023-03-30T06:37:22;12.90;99.90
43227;DHT22;28839;52.404;9.808;2023-03-30T06:44:16;13.90;99.90
43227;DHT22;28839;52.404;9.808;2023-03-30T06:51:09;14.10;99.90
43227;DHT22;28839;52.404;9.808;2023-03-30T06:58:05;13.90;99.90
43227;DHT22;28839;52.404;9.808;2023-03-30T07:04:59;13.80;99.90
43227;DHT22;28839;52.404;9.808;2023-03-30T07:11:53;13.70;99.90
43227;DHT22;28839;52.404;9.808;2023-03-30T07:18:49;13.70;99.90
43227;DHT22;28839;52.404;9.808;2023-03-30T07:25:44;13.70;99.90
43227;DHT22;28839;52.404;9.808;2023-03-30T07:32:38;13.90;99.90
43227;DHT22;28839;52.404;9.808;2023-03-30T07:39:33;13.90;99.90
43227;DHT22;28839;52.404;9.808;2023-03-30T07:46:28;14.10;99.90
43227;DHT22;28839;52.404;9.808;2023-03-30T07:53:22;14.40;99.90
43227;DHT22;28839;52.404;9.808;2023-03-30T08:00:18;14.50;99.90
43227;DHT22;28839;52.404;9.808;2023-03-30T08:07:13;14.60;99.90
43227;DHT22;28839;52.404;9.808;2023-03-30T08:14:08;14.80;99.90
43227;DHT22;28839;52.404;9.808;2023-03-30T08:21:03;15.10;99.90
43227;DHT22;28839;52.404;9.808;2023-03-30T08:27:57;15.30;99.90
43227;DHT22;28839;52.404;9.808;2023-03-30T08:34:51;15.40;99.90
43227;DHT22;28839;52.404;9.808;2023-03-30T08:41:58;15.30;99.90
43227;DHT22;28839;52.404;9.808;2023-03-30T08:48:53;15.40;99.90
43227;DHT22;28839;52.404;9.808;2023-03-30T08:55:51;15.50;99.90
43227;DHT22;28839;52.404;9.808;2023-03-30T09:02:50;15.50;99.90
43227;DHT22;28839;52.404;9.808;2023-03-30T09:09:46;15.00;99.90
43227;DHT22;28839;52.404;9.808;2023-03-30T09:16:47;15.40;99.90
43227;DHT22;28839;52.404;9.808;2023-03-30T09:23:45;15.70;99.90
43227;DHT22;28839;52.404;9.808;2023-03-30T09:30:40;16.00;99.90
43227;DHT22;28839;52.404;9.808;2023-03-30T09:37:35;16.10;99.90
43227;DHT22;28839;52.404;9.808;2023-03-30T09:44:31;15.90;99.90
43227;DHT22;28839;52.404;9.808;2023-03-30T09:51:28;15.60;99.90
43227;DHT22;28839;52.404;9.808;2023-03-30T09:58:25;15.00;99.90
43227;DHT22;28839;52.404;9.808;2023-03-30T10:05:21;14.60;99.90
43227;DHT22;28839;52.404;9.808;2023-03-30T10:12:16;13.90;99.90
43227;DHT22;28839;52.404;9.808;2023-03-30T10:19:16;14.00;99.90
43227;DHT22;28839;52.404;9.808;2023-03-30T10:26:15;14.10;99.90
43227;DHT22;28839;52.404;9.808;2023-03-30T10:33:10;14.20;99.90
43227;DHT22;28839;52.404;9.808;2023-03-30T10:40:13;14.40;99.90
43227;DHT22;28839;52.404;9.808;2023-03-30T10:47:45;15.00;99.90
43227;DHT22;28839;52.404;9.808;2023-03-30T10:54:47;13.60;99.90
43227;DHT22;28839;52.404;9.808;2023-03-30T11:01:52;12.40;99.90
43227;DHT22;28839;52.404;9.808;2023-03-30T11:08:52;12.10;99.90
43227;DHT22;28839;52.404;9.808;2023-03-30T11:15:51;12.10;99.90
43227;DHT22;28839;52.404;9.808;2023-03-30T11:22:47;12.10;99.90
43227;DHT22;28839;52.404;9.808;2023-03-30T11:29:47;12.40;99.90
43227;DHT22;28839;52.404;9.808;2023-03-30T11:36:48;12.80;99.90
43227;DHT22;28839;52.404;9.808;2023-03-30T11:43:46;13.60;99.90
43227;DHT22;28839;52.404;9.808;2023-03-30T11:50:54;14.00;99.90
43227;DHT22;28839;52.404;9.808;2023-03-30T11:57:59;14.50;99.90
43227;DHT22;28839;52.404;9.808;2023-03-30T12:04:58;14.80;99.90
43227;DHT22;28839;52.404;9.808;2023-03-30T12:12:07;15.30;99.90
43227;DHT22;28839;52.404;9.808;2023-03-30T12:19:11;15.20;99.90
43227;DHT22;28839;52.404;9.808;2023-03-30T12:26:09;15.20;99.90
43227;DHT22;28839;52.404;9.808;2023-03-30T12:33:12;15.10;99.90
43227;DHT22;28839;52.404;9.808;2023-03-30T12:40:15;15.30;99.90
43227;DHT22;28839;52.404;9.808;2023-03-30T12:47:39;15.70;99.90
43227;DHT22;28839;52.404;9.808;2023-03-30T12:55:08;15.50;99.90
43227;DHT22;28839;52.404;9.808;2023-03-30T13:02:29;15.70;99.90
43227;DHT22;28839;52.404;9.808;2023-03-30T13:09:31;15.40;99.90
43227;DHT22;28839;52.404;9.808;2023-03-30T13:24:04;14.20;99.90
43227;DHT22;28839;52.404;9.808;2023-03-30T13:31:36;14.00;99.90
43227;DHT22;28839;52.404;9.808;2023-03-30T13:38:54;14.70;99.90
43227;DHT22;28839;52.404;9.808;2023-03-30T13:45:57;15.20;99.90
43227;DHT22;28839;52.404;9.808;2023-03-30T13:52:52;15.20;99.90
43227;DHT22;28839;52.404;9.808;2023-03-30T13:59:51;15.30;99.90
43227;DHT22;28839;52.404;9.808;2023-03-30T14:06:48;15.00;99.90
43227;DHT22;28839;52.404;9.808;2023-03-30T14:13:56;15.40;99.90
43227;DHT22;28839;52.404;9.808;2023-03-30T14:20:52;15.70;99.90
43227;DHT22;28839;52.404;9.808;2023-03-30T14:27:49;15.50;99.90
43227;DHT22;28839;52.404;9.808;2023-03-30T14:34:45;15.50;99.90
43227;DHT22;28839;52.404;9.808;2023-03-30T14:41:39;15.50;99.90
43227;DHT22;28839;52.404;9.808;2023-03-30T14:48:36;15.70;99.90
43227;DHT22;28839;52.404;9.808;2023-03-30T14:55:33;15.70;99.90
43227;DHT22;28839;52.404;9.808;2023-03-30T15:02:29;15.60;99.90
43227;DHT22;28839;52.404;9.808;2023-03-30T15:09:25;15.30;99.90
43227;DHT22;28839;52.404;9.808;2023-03-30T15:16:21;15.50;99.90
43227;DHT22;28839;52.404;9.808;2023-03-30T15:23:15;15.60;99.90
43227;DHT22;28839;52.404;9.808;2023-03-30T15:30:21;15.50;99.90
43227;DHT22;28839;52.404;9.808;2023-03-30T15:37:22;15.30;99.90
43227;DHT22;28839;52.404;9.808;2023-03-30T15:44:16;15.00;99.90
43227;DHT22;28839;52.404;9.808;2023-03-30T15:51:14;14.50;99.90
43227;DHT22;28839;52.404;9.808;2023-03-30T15:58:11;13.90;99.90
43227;DHT22;28839;52.404;9.808;2023-03-30T16:05:14;12.90;99.90
43227;DHT22;28839;52.404;9.808;2023-03-30T16:12:13;13.00;99.90
43227;DHT22;28839;52.404;9.808;2023-03-30T16:19:09;12.90;99.90
43227;DHT22;28839;52.404;9.808;2023-03-30T16:26:04;12.80;99.90
43227;DHT22;28839;52.404;9.808;2023-03-30T16:33:01;12.70;99.90
43227;DHT22;28839;52.404;9.808;2023-03-30T16:39:55;12.70;99.90
43227;DHT22;28839;52.404;9.808;2023-03-30T16:46:49;12.80;99.90
43227;DHT22;28839;52.404;9.808;2023-03-30T16:53:48;12.80;99.90
43227;DHT22;28839;52.404;9.808;2023-03-30T17:00:44;12.70;99.90
43227;DHT22;28839;52.404;9.808;2023-03-30T17:07:39;12.60;99.90
43227;DHT22;28839;52.404;9.808;2023-03-30T17:14:37;12.30;99.90
43227;DHT22;28839;52.404;9.808;2023-03-30T17:21:32;12.10;99.90
43227;DHT22;28839;52.404;9.808;2023-03-30T17:28:27;11.90;99.90
43227;DHT22;28839;52.404;9.808;2023-03-30T17:35:24;12.00;99.90
43227;DHT22;28839;52.404;9.808;2023-03-30T17:42:18;12.00;99.90
43227;DHT22;28839;52.404;9.808;2023-03-30T17:49:14;12.00;99.90
43227;DHT22;28839;52.404;9.808;2023-03-30T17:56:12;12.00;99.90
43227;DHT22;28839;52.404;9.808;2023-03-30T18:03:06;12.00;99.90
43227;DHT22;28839;52.404;9.808;2023-03-30T18:10:00;12.00;99.90
43227;DHT22;28839;52.404;9.808;2023-03-30T18:16:55;12.10;99.90
43227;DHT22;28839;52.404;9.808;2023-03-30T18:23:49;12.10;99.90
43227;DHT22;28839;52.404;9.808;2023-03-30T18:30:43;12.20;99.90
43227;DHT22;28839;52.404;9.808;2023-03-30T18:37:38;12.20;99.90
43227;DHT22;28839;52.404;9.808;2023-03-30T18:44:32;12.20;99.90
43227;DHT22;28839;52.404;9.808;2023-03-30T18:51:26;12.20;99.90
43227;DHT22;28839;52.404;9.808;2023-03-30T18:58:22;12.20;99.90
43227;DHT22;28839;52.404;9.808;2023-03-30T19:05:18;12.20;99.90
43227;DHT22;28839;52.404;9.808;2023-03-30T19:12:12;12.00;99.90
43227;DHT22;28839;52.404;9.808;2023-03-30T19:19:08;12.10;99.90
43227;DHT22;28839;52.404;9.808;2023-03-30T19:26:03;12.10;99.90
43227;DHT22;28839;52.404;9.808;2023-03-30T19:32:59;12.10;99.90
43227;DHT22;28839;52.404;9.808;2023-03-30T19:39:56;12.00;99.90
43227;DHT22;28839;52.404;9.808;2023-03-30T19:46:50;12.00;99.90
43227;DHT22;28839;52.404;9.808;2023-03-30T19:53:43;12.00;99.90
43227;DHT22;28839;52.404;9.808;2023-03-30T20:00:39;12.00;99.90
43227;DHT22;28839;52.404;9.808;2023-03-30T20:07:35;11.90;99.90
43227;DHT22;28839;52.404;9.808;2023-03-30T20:14:30;11.90;99.90
43227;DHT22;28839;52.404;9.808;2023-03-30T20:21:25;11.90;99.90
43227;DHT22;28839;52.404;9.808;2023-03-30T20:28:22;11.80;99.90
43227;DHT22;28839;52.404;9.808;2023-03-30T20:35:16;11.70;99.90
43227;DHT22;28839;52.404;9.808;2023-03-30T20:42:13;11.60;99.90
43227;DHT22;28839;52.404;9.808;2023-03-30T20:49:10;11.50;99.90
43227;DHT22;28839;52.404;9.808;2023-03-30T20:56:05;11.60;99.90
43227;DHT22;28839;52.404;9.808;2023-03-30T21:03:02;11.70;99.90
43227;DHT22;28839;52.404;9.808;2023-03-30T21:09:55;11.80;99.90
43227;DHT22;28839;52.404;9.808;2023-03-30T21:16:49;11.70;99.90
43227;DHT22;28839;52.404;9.808;2023-03-30T21:23:45;11.70;99.90
43227;DHT22;28839;52.404;9.808;2023-03-30T21:30:39;11.60;99.90
43227;DHT22;28839;52.404;9.808;2023-03-30T21:37:33;11.50;99.90
43227;DHT22;28839;52.404;9.808;2023-03-30T21:44:32;11.40;99.90
43227;DHT22;28839;52.404;9.808;2023-03-30T21:51:27;11.30;99.90
43227;DHT22;28839;52.404;9.808;2023-03-30T21:58:22;11.10;99.90
43227;DHT22;28839;52.404;9.808;2023-03-30T22:05:17;11.20;99.90
43227;DHT22;28839;52.404;9.808;2023-03-30T22:12:11;11.40;99.90
43227;DHT22;28839;52.404;9.808;2023-03-30T22:19:05;11.40;99.90
43227;DHT22;28839;52.404;9.808;2023-03-30T22:26:00;11.60;99.90
43227;DHT22;28839;52.404;9.808;2023-03-30T22:32:54;11.60;99.90
43227;DHT22;28839;52.404;9.808;2023-03-30T22:39:48;11.60;99.90
43227;DHT22;28839;52.404;9.808;2023-03-30T22:46:44;11.50;99.90
43227;DHT22;28839;52.404;9.808;2023-03-30T22:53:38;11.40;99.90
43227;DHT22;28839;52.404;9.808;2023-03-30T23:00:32;11.50;99.90
43227;DHT22;28839;52.404;9.808;2023-03-30T23:07:27;11.40;99.90
43227;DHT22;28839;52.404;9.808;2023-03-30T23:14:22;11.40;99.90
43227;DHT22;28839;52.404;9.808;2023-03-30T23:21:18;11.50;99.90
43227;DHT22;28839;52.404;9.808;2023-03-30T23:28:15;11.50;99.90
43227;DHT22;28839;52.404;9.808;2023-03-30T23:35:08;11.50;99.90
43227;DHT22;28839;52.404;9.808;2023-03-30T23:42:03;11.50;99.90
43227;DHT22;28839;52.404;9.808;2023-03-30T23:48:58;11.50;99.90
43227;DHT22;28839;52.404;9.808;2023-03-30T23:55:52;11.50;99.90
